createdAt,value
2022-08-16T00:02:24.244Z,7.20
2022-08-16T00:04:54.612Z,7.45
2022-08-16T00:07:29.113Z,6.30
2022-08-16T00:09:58.818Z,7.10
2022-08-16T00:12:27.788Z,6.30
2022-08-16T00:14:57.122Z,6.93
2022-08-16T00:17:26.253Z,7.03
2022-08-16T00:19:58.849Z,6.78
2022-08-16T00:22:31.935Z,6.78
2022-08-16T00:25:02.918Z,7.90
2022-08-16T00:27:31.907Z,7.55
2022-08-16T00:30:19.200Z,6.30
2022-08-16T00:32:52.006Z,7.32
2022-08-16T00:35:28.987Z,6.85
2022-08-16T00:38:02.975Z,6.10
2022-08-16T00:40:53.632Z,6.40
2022-08-16T00:43:25.031Z,6.88
2022-08-16T00:46:32.975Z,6.35
2022-08-16T00:49:02.669Z,7.30
2022-08-16T00:51:33.603Z,6.82
2022-08-16T00:54:02.736Z,6.45
2022-08-16T00:56:56.122Z,5.97
2022-08-16T00:59:24.848Z,6.50
2022-08-16T01:01:53.788Z,6.60
2022-08-16T01:04:29.949Z,6.18
2022-08-16T01:07:03.054Z,6.55
2022-08-16T01:09:33.483Z,6.55
2022-08-16T01:12:02.954Z,7.75
2022-08-16T01:14:34.681Z,7.05
2022-08-16T01:17:03.950Z,6.75
2022-08-16T01:19:40.945Z,6.38
2022-08-16T01:22:47.862Z,6.35
2022-08-16T01:25:04.219Z,8.27
2022-08-16T01:27:34.846Z,6.78
2022-08-16T01:30:19.570Z,6.45
2022-08-16T01:33:01.830Z,6.25
2022-08-16T01:35:36.287Z,7.00
2022-08-16T01:38:19.917Z,7.80
2022-08-16T01:40:52.963Z,8.38
2022-08-16T01:43:24.355Z,6.00
2022-08-16T01:45:57.916Z,6.32
2022-08-16T01:48:29.372Z,6.18
2022-08-16T01:51:07.951Z,6.68
2022-08-16T01:53:45.363Z,6.10
2022-08-16T01:56:32.222Z,6.10
2022-08-16T01:59:05.788Z,6.20
2022-08-16T02:01:35.356Z,6.65
2022-08-16T02:04:10.698Z,6.13
2022-08-16T02:06:46.937Z,6.28
2022-08-16T02:09:20.539Z,6.28
2022-08-16T02:11:55.799Z,6.38
2022-08-16T02:14:26.691Z,5.82
2022-08-16T02:16:58.207Z,7.00
2022-08-16T02:19:58.702Z,6.20
2022-08-16T02:22:35.126Z,8.10
2022-08-16T02:25:10.274Z,6.32
2022-08-16T02:27:41.317Z,6.25
2022-08-16T02:30:37.198Z,6.10
2022-08-16T02:33:03.879Z,6.38
2022-08-16T02:35:32.715Z,6.10
2022-08-16T02:38:08.986Z,6.65
2022-08-16T02:40:39.876Z,6.57
2022-08-16T02:43:13.785Z,7.20
2022-08-16T02:45:44.801Z,6.38
2022-08-16T02:48:29.024Z,6.47
2022-08-16T02:51:10.183Z,6.50
2022-08-16T02:53:43.693Z,6.10
2022-08-16T02:56:14.949Z,6.13
2022-08-16T02:58:46.395Z,6.30
2022-08-16T03:01:24.341Z,6.15
2022-08-16T03:04:48.839Z,6.35
2022-08-16T03:06:44.143Z,8.02
2022-08-16T03:09:22.316Z,6.78
2022-08-16T03:11:55.428Z,6.60
2022-08-16T03:14:25.398Z,6.78
2022-08-16T03:17:00.786Z,8.02
2022-08-16T03:19:47.138Z,6.60
2022-08-16T03:22:28.668Z,6.60
2022-08-16T03:25:04.861Z,6.25
2022-08-16T03:27:39.138Z,6.40
2022-08-16T03:30:17.823Z,6.50
2022-08-16T03:33:00.321Z,6.93
2022-08-16T03:35:35.421Z,7.15
2022-08-16T03:38:34.372Z,6.47
2022-08-16T03:41:25.565Z,6.55
2022-08-16T03:44:00.614Z,6.78
2022-08-16T03:46:45.153Z,6.35
2022-08-16T03:49:22.526Z,7.53
2022-08-16T03:51:54.976Z,6.45
2022-08-16T03:54:28.514Z,6.53
2022-08-16T03:56:58.998Z,6.50
2022-08-16T03:59:30.359Z,6.93
2022-08-16T04:02:10.557Z,6.40
2022-08-16T04:04:42.373Z,6.40
2022-08-16T04:07:12.245Z,6.22
2022-08-16T04:09:43.776Z,7.65
2022-08-16T04:12:53.599Z,6.63
2022-08-16T04:15:03.467Z,6.82
2022-08-16T04:17:40.076Z,7.40
2022-08-16T04:20:23.542Z,6.35
2022-08-16T04:23:01.798Z,7.70
2022-08-16T04:25:32.714Z,6.47
2022-08-16T04:28:29.218Z,6.65
2022-08-16T04:30:50.909Z,6.68
2022-08-16T04:33:27.382Z,6.50
2022-08-16T04:35:59.916Z,6.90
2022-08-16T04:38:30.931Z,7.75
2022-08-16T04:41:00.669Z,6.82
2022-08-16T04:43:29.844Z,6.72
2022-08-16T04:46:03.060Z,7.18
2022-08-16T04:48:38.750Z,6.47
2022-08-16T04:51:13.917Z,6.63
2022-08-16T04:53:47.646Z,6.60
2022-08-16T04:56:18.865Z,7.55
2022-08-16T04:58:48.134Z,6.85
2022-08-16T05:01:19.537Z,7.45
2022-08-16T05:03:59.951Z,6.13
2022-08-16T05:06:40.154Z,6.55
2022-08-16T05:09:16.279Z,6.43
2022-08-16T05:11:47.612Z,6.95
2022-08-16T05:14:20.133Z,6.72
2022-08-16T05:17:06.913Z,6.30
2022-08-16T05:19:37.360Z,6.22
2022-08-16T05:22:18.360Z,6.70
2022-08-16T05:24:55.181Z,6.80
2022-08-16T05:27:24.627Z,7.15
2022-08-16T05:29:59.918Z,6.57
2022-08-16T05:32:32.502Z,7.43
2022-08-16T05:35:07.821Z,6.15
2022-08-16T05:37:42.980Z,6.57
2022-08-16T05:40:15.296Z,6.88
2022-08-16T05:42:46.134Z,6.28
2022-08-16T05:45:21.854Z,7.20
2022-08-16T05:48:00.374Z,5.82
2022-08-16T05:50:41.691Z,6.30
2022-08-16T05:53:11.510Z,8.15
2022-08-16T05:55:54.176Z,6.68
2022-08-16T05:58:32.819Z,6.72
2022-08-16T06:01:03.390Z,7.03
2022-08-16T06:03:34.855Z,6.60
2022-08-16T06:06:09.716Z,6.80
2022-08-16T06:08:44.710Z,7.40
2022-08-16T06:11:17.005Z,7.10
2022-08-16T06:13:55.400Z,6.63
2022-08-16T06:16:35.595Z,6.53
2022-08-16T06:19:04.955Z,6.25
2022-08-16T06:21:37.096Z,6.80
2022-08-16T06:24:52.880Z,6.57
2022-08-16T06:26:58.115Z,6.70
2022-08-16T06:29:32.186Z,6.32
2022-08-16T06:32:01.711Z,7.35
2022-08-16T06:34:56.737Z,7.03
2022-08-16T06:37:23.695Z,7.05
2022-08-16T06:39:52.745Z,6.38
2022-08-16T06:42:39.486Z,6.28
2022-08-16T06:45:43.421Z,6.75
2022-08-16T06:48:32.662Z,6.53
2022-08-16T06:51:05.605Z,6.43
2022-08-16T06:53:36.890Z,6.03
2022-08-16T06:56:14.194Z,6.55
2022-08-16T06:59:10.278Z,6.40
2022-08-16T07:01:53.558Z,6.85
2022-08-16T07:04:33.236Z,6.70
2022-08-16T07:07:20.592Z,6.68
2022-08-16T07:09:51.267Z,6.70
2022-08-16T07:12:20.678Z,6.32
2022-08-16T07:15:08.545Z,6.85
2022-08-16T07:17:46.051Z,6.35
2022-08-16T07:20:34.924Z,6.95
2022-08-16T07:23:13.344Z,7.20
2022-08-16T07:25:52.772Z,6.75
2022-08-16T07:28:24.563Z,6.28
2022-08-16T07:30:57.346Z,6.53
2022-08-16T07:33:51.898Z,6.45
2022-08-16T07:36:29.034Z,6.32
2022-08-16T07:39:01.695Z,7.97
2022-08-16T07:41:38.813Z,6.88
2022-08-16T07:44:16.096Z,6.47
2022-08-16T07:46:47.720Z,6.47
2022-08-16T07:49:24.967Z,6.60
2022-08-16T07:51:55.905Z,6.20
2022-08-16T07:54:32.175Z,7.00
2022-08-16T07:57:11.283Z,7.65
2022-08-16T07:59:46.286Z,7.45
2022-08-16T08:02:20.369Z,6.28
2022-08-16T08:04:57.829Z,6.30
2022-08-16T08:07:29.548Z,6.53
2022-08-16T08:10:04.995Z,6.93
2022-08-16T08:12:37.005Z,6.20
2022-08-16T08:15:10.199Z,6.32
2022-08-16T08:17:42.545Z,6.80
2022-08-16T08:20:26.612Z,6.68
2022-08-16T08:23:01.284Z,6.38
2022-08-16T08:25:53.419Z,6.75
2022-08-16T08:28:26.515Z,6.32
2022-08-16T08:31:02.953Z,6.20
2022-08-16T08:33:36.026Z,6.20
2022-08-16T08:36:11.617Z,6.47
2022-08-16T08:38:52.734Z,6.28
2022-08-16T08:41:27.721Z,6.38
2022-08-16T08:44:00.698Z,6.20
2022-08-16T08:47:00.753Z,6.40
2022-08-16T08:49:50.494Z,6.43
2022-08-16T08:52:35.395Z,6.00
2022-08-16T08:55:12.862Z,6.38
2022-08-16T08:57:46.178Z,6.55
2022-08-16T09:00:26.852Z,6.13
2022-08-16T09:03:00.290Z,6.50
2022-08-16T09:05:37.280Z,6.00
2022-08-16T09:08:09.205Z,6.20
2022-08-16T09:11:02.059Z,6.43
2022-08-16T09:13:33.415Z,6.10
2022-08-16T09:16:04.569Z,6.38
2022-08-16T09:18:35.742Z,6.50
2022-08-16T09:21:09.516Z,6.75
2022-08-16T09:23:38.314Z,8.52
2022-08-16T09:26:45.797Z,6.15
2022-08-16T09:29:14.642Z,6.55
2022-08-16T09:31:47.617Z,6.38
2022-08-16T09:34:23.156Z,6.60
2022-08-16T09:36:54.537Z,7.22
2022-08-16T09:39:24.528Z,7.57
2022-08-16T09:42:10.621Z,6.22
2022-08-16T09:45:12.235Z,5.90
2022-08-16T09:47:29.703Z,7.55
2022-08-16T09:50:22.980Z,6.63
2022-08-16T09:52:52.100Z,6.47
2022-08-16T09:55:21.221Z,8.13
2022-08-16T09:57:54.077Z,6.47
2022-08-16T10:00:42.726Z,6.70
2022-08-16T10:03:14.620Z,6.57
2022-08-16T10:05:43.455Z,6.88
2022-08-16T10:08:26.899Z,6.53
2022-08-16T10:11:13.129Z,6.55
2022-08-16T10:13:44.368Z,6.80
2022-08-16T10:19:00.921Z,7.20
2022-08-16T10:21:34.973Z,6.70
2022-08-16T10:24:04.221Z,6.90
2022-08-16T10:27:20.523Z,7.22
2022-08-16T10:29:22.500Z,6.53
2022-08-16T10:31:53.319Z,7.82
2022-08-16T10:34:31.109Z,7.35
2022-08-16T10:37:02.078Z,6.70
2022-08-16T10:39:40.469Z,6.53
2022-08-16T10:42:10.490Z,6.38
2022-08-16T10:44:53.408Z,6.65
2022-08-16T10:47:23.906Z,7.90
2022-08-16T10:49:55.967Z,6.90
2022-08-16T10:52:27.155Z,6.40
2022-08-16T10:57:52.521Z,7.47
2022-08-16T11:00:22.695Z,7.82
2022-08-16T11:02:57.653Z,8.07
2022-08-16T11:05:59.615Z,6.65
2022-08-16T11:08:35.878Z,7.38
2022-08-16T11:11:12.714Z,6.50
2022-08-16T11:14:10.963Z,7.25
2022-08-16T11:19:30.190Z,6.82
2022-08-16T11:22:39.338Z,6.45
2022-08-16T11:25:11.891Z,6.82
2022-08-16T11:27:38.851Z,6.30
2022-08-16T11:30:12.352Z,6.35
2022-08-16T11:32:49.031Z,6.95
2022-08-16T11:35:43.010Z,8.10
2022-08-16T11:38:47.315Z,7.00
2022-08-16T11:41:02.166Z,6.97
2022-08-16T11:43:31.957Z,7.18
2022-08-16T11:46:43.279Z,7.25
2022-08-16T11:48:55.862Z,6.70
2022-08-16T11:51:24.636Z,7.68
2022-08-16T11:53:54.873Z,6.70
2022-08-16T11:56:39.677Z,7.68
2022-08-16T11:59:13.222Z,8.57
2022-08-16T12:01:55.197Z,6.90
2022-08-16T12:04:28.925Z,7.22
2022-08-16T12:06:58.913Z,7.30
2022-08-16T12:09:29.598Z,7.07
2022-08-16T12:11:58.721Z,7.50
2022-08-16T12:14:35.537Z,7.03
2022-08-16T12:17:08.541Z,7.00
2022-08-16T12:19:37.109Z,6.97
2022-08-16T12:22:19.801Z,6.50
2022-08-16T12:24:52.398Z,7.20
2022-08-16T12:27:24.477Z,8.23
2022-08-16T12:29:53.832Z,7.68
2022-08-16T12:32:38.405Z,6.40
2022-08-16T12:35:13.184Z,6.78
2022-08-16T12:37:43.443Z,7.50
2022-08-16T12:40:23.756Z,7.47
2022-08-16T12:42:58.452Z,7.38
2022-08-16T12:45:30.228Z,6.95
2022-08-16T12:48:34.502Z,6.72
2022-08-16T12:51:04.211Z,6.82
2022-08-16T12:53:34.800Z,6.75
2022-08-16T12:56:11.607Z,6.47
2022-08-16T12:58:49.604Z,6.85
2022-08-16T13:01:22.665Z,7.28
2022-08-16T13:04:11.373Z,7.40
2022-08-16T13:06:41.982Z,6.38
2022-08-16T13:09:22.156Z,6.88
2022-08-16T13:12:06.409Z,6.30
2022-08-16T13:14:41.374Z,7.70
2022-08-16T13:17:19.252Z,7.45
2022-08-16T13:20:08.501Z,7.82
2022-08-16T13:25:09.649Z,7.00
2022-08-16T13:28:02.404Z,6.90
2022-08-16T13:30:41.693Z,7.32
2022-08-16T13:33:14.083Z,6.88
2022-08-16T13:35:46.566Z,6.55
2022-08-16T13:38:31.388Z,6.28
2022-08-16T13:41:08.365Z,8.38
2022-08-16T13:43:41.005Z,6.70
2022-08-16T13:46:11.654Z,7.35
2022-08-16T13:48:46.505Z,6.97
2022-08-16T13:51:17.592Z,6.90
2022-08-16T13:53:54.933Z,6.30
2022-08-16T13:56:34.242Z,6.95
2022-08-16T13:59:14.377Z,6.80
2022-08-16T14:01:55.272Z,8.38
2022-08-16T14:04:28.098Z,6.68
2022-08-16T14:06:58.435Z,6.50
2022-08-16T14:09:28.372Z,7.00
2022-08-16T14:11:58.119Z,7.53
2022-08-16T14:14:31.564Z,6.82
2022-08-16T14:17:01.242Z,7.53
2022-08-16T14:19:31.313Z,6.47
2022-08-16T14:22:13.673Z,7.50
2022-08-16T14:24:47.137Z,6.18
2022-08-16T14:27:18.948Z,6.50
2022-08-16T14:29:50.713Z,6.68
2022-08-16T14:32:27.274Z,6.30
2022-08-16T14:35:03.008Z,7.40
2022-08-16T14:37:32.966Z,6.38
2022-08-16T14:40:03.205Z,6.63
2022-08-16T14:42:36.775Z,6.20
2022-08-16T14:45:08.162Z,6.65
2022-08-16T14:47:40.483Z,7.30
2022-08-16T14:50:13.004Z,6.00
2022-08-16T14:52:55.136Z,6.30
2022-08-16T14:55:27.908Z,7.00
2022-08-16T14:58:00.466Z,6.53
2022-08-16T15:00:32.831Z,6.47
2022-08-16T15:03:04.571Z,6.40
2022-08-16T15:05:35.141Z,6.68
2022-08-16T15:08:05.167Z,6.32
2022-08-16T15:10:34.454Z,6.68
2022-08-16T15:13:06.466Z,6.82
2022-08-16T15:15:40.077Z,6.38
2022-08-16T15:18:12.121Z,5.90
2022-08-16T15:20:43.165Z,8.10
2022-08-16T15:23:29.884Z,8.90
2022-08-16T15:26:03.640Z,6.82
2022-08-16T15:28:33.752Z,7.57
2022-08-16T15:31:04.595Z,6.72
2022-08-16T15:33:43.334Z,7.07
2022-08-16T15:36:17.687Z,6.95
2022-08-16T15:39:02.517Z,8.73
2022-08-16T15:41:56.077Z,6.05
2022-08-16T15:44:27.116Z,7.75
2022-08-16T15:46:59.986Z,7.25
2022-08-16T15:49:34.603Z,6.88
2022-08-16T15:52:08.034Z,6.10
2022-08-16T15:54:43.844Z,7.68
2022-08-16T15:57:26.434Z,9.75
2022-08-16T16:00:04.375Z,6.47
2022-08-16T16:02:43.934Z,6.32
2022-08-16T16:05:14.257Z,6.07
2022-08-16T16:07:55.824Z,6.70
2022-08-16T16:10:29.936Z,6.60
2022-08-16T16:13:05.679Z,6.32
2022-08-16T16:16:03.883Z,6.53
2022-08-16T16:18:42.691Z,6.72
2022-08-16T16:21:20.647Z,6.05
2022-08-16T16:23:55.065Z,7.38
2022-08-16T16:26:27.184Z,6.97
2022-08-16T16:29:08.015Z,7.13
2022-08-16T16:31:39.623Z,7.97
2022-08-16T16:34:10.039Z,15.52
2022-08-16T16:36:39.892Z,11.23
2022-08-16T16:39:11.855Z,18.23
2022-08-16T16:41:40.553Z,7.93
2022-08-16T16:44:10.509Z,7.38
2022-08-16T16:46:56.850Z,13.48
2022-08-16T16:49:27.625Z,9.80
2022-08-16T16:52:06.539Z,13.65
2022-08-16T16:54:35.742Z,10.88
2022-08-16T16:57:04.189Z,14.35
2022-08-16T16:59:31.329Z,9.65
2022-08-16T17:02:41.612Z,10.63
2022-08-16T17:04:49.831Z,8.80
2022-08-16T17:07:23.890Z,9.57
2022-08-16T17:09:52.741Z,9.50
2022-08-16T17:12:24.925Z,8.75
2022-08-16T17:15:10.567Z,8.35
2022-08-16T17:19:01.881Z,7.85
2022-08-16T17:20:28.387Z,9.30
2022-08-16T17:22:57.044Z,10.52
2022-08-16T17:25:25.963Z,9.73
2022-08-16T17:28:57.812Z,6.93
2022-08-16T17:30:53.898Z,10.55
2022-08-16T17:33:23.330Z,7.55
2022-08-16T17:35:55.386Z,8.55
2022-08-16T17:38:33.031Z,9.23
2022-08-16T17:41:12.074Z,8.30
2022-08-16T17:43:44.038Z,7.03
2022-08-16T17:46:50.430Z,6.63
2022-08-16T17:49:01.831Z,6.13
2022-08-16T17:51:31.576Z,7.95
2022-08-16T17:53:59.729Z,8.10
2022-08-16T17:56:27.973Z,6.13
2022-08-16T17:58:56.114Z,8.07
2022-08-16T18:01:26.416Z,7.07
2022-08-16T18:04:02.740Z,7.10
2022-08-16T18:06:39.690Z,7.10
2022-08-16T18:09:08.440Z,7.85
2022-08-16T18:11:40.879Z,9.48
2022-08-16T18:14:16.843Z,10.70
2022-08-16T18:16:46.249Z,7.88
2022-08-16T18:19:14.623Z,7.93
2022-08-16T18:22:01.561Z,7.40
2022-08-16T18:24:31.811Z,7.53
2022-08-16T18:27:25.632Z,8.60
2022-08-16T18:29:51.233Z,10.45
2022-08-16T18:32:21.910Z,8.82
2022-08-16T18:34:52.800Z,8.45
2022-08-16T18:37:24.111Z,8.35
2022-08-16T18:39:52.596Z,9.77
2022-08-16T18:42:20.942Z,9.77
2022-08-16T18:44:49.131Z,8.30
2022-08-16T18:47:17.308Z,10.88
2022-08-16T18:49:45.541Z,10.10
2022-08-16T18:52:25.762Z,9.27
2022-08-16T18:55:01.865Z,9.35
2022-08-16T18:57:41.967Z,9.05
2022-08-16T19:00:21.097Z,14.05
2022-08-16T19:02:58.690Z,17.65
2022-08-16T19:05:29.191Z,25.20
2022-08-16T19:07:57.401Z,22.45
2022-08-16T19:10:26.949Z,14.25
2022-08-16T19:12:55.246Z,12.23
2022-08-16T19:15:27.054Z,15.10
2022-08-16T19:17:56.292Z,15.48
2022-08-16T19:20:26.467Z,10.43
2022-08-16T19:23:10.919Z,11.35
2022-08-16T19:25:48.361Z,16.38
2022-08-16T19:28:46.651Z,14.20
2022-08-16T19:31:08.816Z,14.10
2022-08-16T19:33:37.172Z,15.93
2022-08-16T19:36:06.019Z,18.55
2022-08-16T19:38:34.283Z,13.98
2022-08-16T19:41:03.815Z,18.77
2022-08-16T19:43:32.130Z,11.98
2022-08-16T19:46:00.391Z,14.60
2022-08-16T19:48:28.510Z,14.63
2022-08-16T19:50:56.751Z,12.27
2022-08-16T19:53:27.009Z,13.88
2022-08-16T19:55:55.296Z,16.67
2022-08-16T19:58:24.798Z,17.67
2022-08-16T20:00:56.319Z,12.38
2022-08-16T20:03:25.036Z,14.38
2022-08-16T20:05:53.383Z,12.55
2022-08-16T20:08:22.283Z,15.13
2022-08-16T20:10:51.817Z,13.98
2022-08-16T20:13:21.113Z,13.88
2022-08-16T20:15:50.864Z,12.80
2022-08-16T20:18:21.476Z,14.45
2022-08-16T20:20:53.521Z,13.35
2022-08-16T20:23:24.758Z,15.80
2022-08-16T20:25:55.520Z,12.13
2022-08-16T20:28:52.114Z,18.77
2022-08-16T20:31:13.558Z,13.88
2022-08-16T20:33:41.658Z,13.77
2022-08-16T20:36:10.619Z,12.38
2022-08-16T20:38:46.879Z,14.60
2022-08-16T20:41:15.518Z,16.48
2022-08-16T20:43:43.745Z,19.00
2022-08-16T20:46:15.221Z,15.50
2022-08-16T20:48:43.441Z,18.63
2022-08-16T20:51:11.619Z,19.98
2022-08-16T20:53:39.730Z,18.90
2022-08-16T20:56:08.148Z,19.23
2022-08-16T20:58:37.285Z,15.95
2022-08-16T21:01:05.750Z,19.27
2022-08-16T21:03:35.375Z,17.70
2022-08-16T21:06:03.559Z,16.25
2022-08-16T21:08:52.983Z,19.40
2022-08-16T21:11:21.529Z,14.05
2022-08-16T21:13:49.759Z,14.73
2022-08-16T21:16:18.711Z,14.43
2022-08-16T21:18:48.230Z,16.85
2022-08-16T21:21:16.338Z,19.10
2022-08-16T21:23:44.949Z,13.93
2022-08-16T21:26:13.212Z,15.43
2022-08-16T21:28:43.645Z,17.27
2022-08-16T21:31:13.989Z,14.85
2022-08-16T21:33:42.565Z,18.00
2022-08-16T21:36:12.148Z,13.90
2022-08-16T21:38:40.343Z,15.60
2022-08-16T21:41:08.909Z,14.90
2022-08-16T21:43:37.015Z,16.30
2022-08-16T21:46:05.623Z,15.75
2022-08-16T21:48:35.975Z,15.50
2022-08-16T21:51:05.076Z,12.10
2022-08-16T21:53:34.610Z,13.88
2022-08-16T21:56:02.865Z,20.25
2022-08-16T21:58:31.316Z,15.25
2022-08-16T22:00:59.457Z,13.98
2022-08-16T22:03:27.606Z,16.35
2022-08-16T22:06:11.075Z,15.90
2022-08-16T22:08:50.527Z,17.00
2022-08-16T22:11:19.995Z,16.55
2022-08-16T22:13:51.173Z,14.57
2022-08-16T22:16:25.702Z,17.85
2022-08-16T22:18:53.840Z,15.48
2022-08-16T22:21:21.984Z,14.90
2022-08-16T22:23:56.832Z,13.68
2022-08-16T22:26:30.204Z,14.48
2022-08-16T22:29:00.740Z,16.65
2022-08-16T22:31:29.175Z,13.77
2022-08-16T22:33:57.900Z,13.27
2022-08-16T22:36:28.058Z,13.07
2022-08-16T22:38:59.125Z,14.32
2022-08-16T22:41:27.723Z,12.07
2022-08-16T22:43:56.031Z,16.30
2022-08-16T22:46:24.191Z,13.80
2022-08-16T22:48:53.502Z,13.93
2022-08-16T22:51:22.399Z,14.75
2022-08-16T22:53:50.576Z,13.43
2022-08-16T22:56:20.134Z,12.98
2022-08-16T22:58:48.461Z,12.10
2022-08-16T23:01:17.707Z,14.85
2022-08-16T23:03:45.905Z,14.80
2022-08-16T23:06:14.221Z,14.70
2022-08-16T23:08:43.223Z,15.48
2022-08-16T23:11:13.882Z,13.25
2022-08-16T23:13:53.013Z,13.85
2022-08-16T23:16:22.853Z,15.55
2022-08-16T23:18:53.385Z,16.35
2022-08-16T23:21:21.911Z,14.40
2022-08-16T23:23:51.029Z,16.17
2022-08-16T23:26:43.842Z,13.65
2022-08-16T23:29:15.569Z,17.45
2022-08-16T23:31:53.478Z,12.75
2022-08-16T23:34:22.122Z,13.63
2022-08-16T23:36:50.266Z,16.60
2022-08-16T23:39:18.394Z,16.13
2022-08-16T23:41:46.558Z,17.63
2022-08-16T23:44:55.470Z,15.25
2022-08-16T23:47:06.000Z,17.75
2022-08-16T23:49:59.216Z,14.93
2022-08-16T23:52:53.247Z,16.10
2022-08-16T23:55:10.954Z,14.18
2022-08-16T23:57:39.455Z,14.95
